Time;durP1;ratioP1;P1;durP2;ratioP2;P2;SDS_P1;SDS_P2;PMS_P1;PMS_P2;Temp;Humidity;BMP_temperature;BMP_pressure;BME280_temperature;BME280_humidity;BME280_pressure;Samples;Min_cycle;Max_cycle;Signal;HPM_P1;HPM_P2
2022/05/01 00:00:23;;;;;;;32.80;19.40;;;;;;;8.89;100.00;99516.41;5028152;28;20047;-78
2022/05/01 00:02:50;;;;;;;33.25;19.33;;;;;;;8.91;100.00;99506.25;5027692;28;20118;-78
2022/05/01 00:05:18;;;;;;;30.48;20.52;;;;;;;8.79;100.00;99470.44;5023873;28;20053;-78
2022/05/01 00:07:45;;;;;;;33.63;19.40;;;;;;;8.88;100.00;99506.56;5027306;28;20107;-78
2022/05/01 00:10:12;;;;;;;33.05;20.30;;;;;;;8.78;100.00;99499.44;5016851;28;20457;-78
2022/05/01 00:12:39;;;;;;;28.45;18.08;;;;;;;8.69;100.00;99489.59;5024233;28;20401;-78
2022/05/01 00:15:06;;;;;;;32.20;20.27;;;;;;;8.79;100.00;99503.84;5036507;28;20084;-78
2022/05/01 00:17:33;;;;;;;37.03;17.42;;;;;;;8.89;100.00;99505.56;5026251;28;20060;-78
2022/05/01 00:20:00;;;;;;;35.83;21.40;;;;;;;8.96;100.00;99501.19;5027116;28;20053;-78
2022/05/01 00:22:28;;;;;;;34.85;19.15;;;;;;;8.74;100.00;99480.97;5020437;28;20137;-78
2022/05/01 00:24:54;;;;;;;37.20;21.13;;;;;;;8.82;100.00;99491.81;5019058;28;20129;-77
2022/05/01 00:27:22;;;;;;;37.17;20.33;;;;;;;8.95;100.00;99507.63;5030384;28;20049;-77
2022/05/01 00:29:49;;;;;;;41.28;22.38;;;;;;;8.77;100.00;99481.47;5042593;28;20127;-77
2022/05/01 00:32:15;;;;;;;34.40;21.38;;;;;;;8.89;100.00;99492.84;5030529;28;20130;-78
2022/05/01 00:37:28;;;;;;;32.03;20.25;;;;;;;8.77;100.00;99492.31;5023637;28;20060;-78
2022/05/01 00:40:02;;;;;;;33.53;20.70;;;;;;;8.76;100.00;99496.06;5020104;28;20077;-78
2022/05/01 00:42:28;;;;;;;38.70;22.33;;;;;;;8.67;100.00;99473.50;5027462;28;20053;-78
2022/05/01 00:44:55;;;;;;;35.15;20.55;;;;;;;8.74;100.00;99484.50;5026321;28;20046;-78
2022/05/01 00:47:22;;;;;;;41.38;21.48;;;;;;;8.63;100.00;99484.84;5031505;28;20045;-78
2022/05/01 00:49:48;;;;;;;33.22;20.88;;;;;;;8.62;100.00;99472.28;5034090;28;20053;-78
2022/05/01 00:52:15;;;;;;;36.13;21.73;;;;;;;8.57;100.00;99466.53;5024606;28;20084;-78
2022/05/01 00:54:44;;;;;;;38.78;21.25;;;;;;;8.71;100.00;99489.41;5029990;28;20104;-78
2022/05/01 00:57:11;;;;;;;32.92;20.17;;;;;;;8.70;100.00;99483.13;5022202;28;20056;-78
2022/05/01 00:59:38;;;;;;;36.05;21.08;;;;;;;8.71;100.00;99492.97;5028389;28;20057;-78
2022/05/01 01:02:06;;;;;;;35.38;21.27;;;;;;;8.74;100.00;99498.06;5021204;28;20050;-78
2022/05/01 01:04:33;;;;;;;40.28;21.38;;;;;;;8.53;100.00;99470.56;5022266;28;20058;-78
2022/05/01 01:07:00;;;;;;;37.05;21.30;;;;;;;8.60;100.00;99482.44;5018629;28;20084;-78
2022/05/01 01:09:29;;;;;;;33.72;21.58;;;;;;;8.62;100.00;99486.66;5030133;28;20057;-77
2022/05/01 01:14:46;;;;;;;37.30;22.05;;;;;;;8.78;100.00;99502.16;5021303;28;20054;-78
2022/05/01 01:17:15;;;;;;;34.38;20.20;;;;;;;8.76;100.00;99493.34;5017191;28;20132;-78
2022/05/01 01:19:42;;;;;;;34.87;20.87;;;;;;;8.69;100.00;99478.75;5016485;28;20067;-78
2022/05/01 01:22:11;;;;;;;35.25;21.35;;;;;;;8.76;100.00;99492.47;5014436;28;20063;-77
2022/05/01 01:24:43;;;;;;;32.35;20.77;;;;;;;8.68;100.00;99488.72;5024869;28;20444;-78
2022/05/01 01:27:10;;;;;;;35.50;22.15;;;;;;;8.76;100.00;99489.75;5016233;28;20107;-77
2022/05/01 01:32:26;;;;;;;36.03;19.92;;;;;;;8.70;100.00;99491.25;5020771;28;20131;-77
2022/05/01 01:34:53;;;;;;;;;;;;;;;8.69;100.00;99489.59;5028867;28;20136;-77
2022/05/01 01:37:24;;;;;;;36.80;19.35;;;;;;;8.55;100.00;99482.06;5029585;28;19921;-78
2022/05/01 01:39:52;;;;;;;38.55;20.90;;;;;;;8.61;100.00;99476.88;5029099;28;20401;-78
2022/05/01 01:42:19;;;;;;;37.55;21.30;;;;;;;8.49;100.00;99456.47;5027398;28;20056;-77
2022/05/01 01:44:47;;;;;;;39.25;21.13;;;;;;;8.67;100.00;99476.19;5019868;28;20053;-78
2022/05/01 01:47:18;;;;;;;35.75;21.27;;;;;;;8.70;100.00;99468.75;5025063;28;20160;-78
2022/05/01 01:49:45;;;;;;;37.67;21.25;;;;;;;8.72;100.00;99475.69;5029051;28;20076;-78
2022/05/01 01:52:11;;;;;;;35.38;21.52;;;;;;;8.60;100.00;99464.31;5029077;28;20076;-78
2022/05/01 01:54:39;;;;;;;38.13;21.58;;;;;;;8.58;100.00;99466.34;5029682;28;20052;-78
2022/05/01 01:57:06;;;;;;;36.55;20.92;;;;;;;8.57;100.00;99467.34;5023135;28;20049;-78
2022/05/01 01:59:32;;;;;;;40.22;23.17;;;;;;;8.61;100.00;99474.16;5023635;28;20107;-78
2022/05/01 02:01:59;;;;;;;36.42;22.23;;;;;;;8.64;100.00;99478.38;5021858;28;20056;-78
2022/05/01 02:04:25;;;;;;;39.50;22.45;;;;;;;8.44;100.00;99448.84;5020446;28;20394;-78
2022/05/01 02:06:52;;;;;;;39.53;22.80;;;;;;;8.50;100.00;99466.31;5024754;28;20581;-78
2022/05/01 02:09:18;;;;;;;39.92;21.17;;;;;;;8.54;100.00;99456.84;5030705;28;20060;-78
2022/05/01 02:11:47;;;;;;;35.63;21.95;;;;;;;8.64;100.00;99472.94;5023787;28;20403;-78
2022/05/01 02:14:13;;;;;;;38.75;23.38;;;;;;;8.66;100.00;99470.94;5022897;28;20057;-78
2022/05/01 02:16:40;;;;;;;37.08;23.08;;;;;;;8.65;100.00;99463.81;5024546;28;20146;-78
2022/05/01 02:19:07;;;;;;;38.80;21.85;;;;;;;8.58;100.00;99470.91;5026211;28;20045;-78
2022/05/01 02:21:36;;;;;;;37.05;21.75;;;;;;;8.56;100.00;99462.09;5025518;28;20046;-78
2022/05/01 02:24:07;;;;;;;34.45;22.55;;;;;;;8.51;100.00;99462.59;5031320;28;20048;-78
2022/05/01 02:26:35;;;;;;;34.70;21.13;;;;;;;8.61;100.00;99466.03;5032380;28;20052;-78
2022/05/01 02:29:04;;;;;;;34.53;22.05;;;;;;;8.55;100.00;99441.44;5033164;28;20054;-78
2022/05/01 02:31:30;;;;;;;36.78;21.55;;;;;;;8.51;100.00;99451.75;5029012;28;20054;-78
2022/05/01 02:33:57;;;;;;;38.00;21.50;;;;;;;8.44;100.00;99435.28;5023060;28;20042;-78
2022/05/01 02:36:23;;;;;;;35.70;20.98;;;;;;;8.56;100.00;99445.84;5030494;28;20049;-78
2022/05/01 02:38:50;;;;;;;42.08;22.83;;;;;;;8.58;100.00;99444.69;5031107;28;20057;-78
2022/05/01 02:41:18;;;;;;;38.67;21.77;;;;;;;8.64;100.00;99456.69;5033321;28;20054;-78
2022/05/01 02:43:45;;;;;;;37.05;22.13;;;;;;;8.54;100.00;99450.59;5028371;28;20136;-78
2022/05/01 02:46:13;;;;;;;37.35;21.77;;;;;;;8.60;100.00;99456.19;5027832;28;20512;-78
2022/05/01 02:48:39;;;;;;;33.47;21.13;;;;;;;8.51;100.00;99459.88;5031517;28;20049;-78
2022/05/01 02:51:06;;;;;;;35.63;21.33;;;;;;;8.36;100.00;99437.97;5028119;28;20497;-78
2022/05/01 02:53:33;;;;;;;39.00;21.65;;;;;;;8.36;100.00;99423.56;5029816;28;20041;-78
2022/05/01 02:56:01;;;;;;;43.25;23.25;;;;;;;8.50;100.00;99450.88;5027012;28;20054;-78
2022/05/01 02:58:28;;;;;;;39.42;24.13;;;;;;;8.39;100.00;99440.34;5032165;28;20563;-78
2022/05/01 03:00:55;;;;;;;39.60;23.02;;;;;;;8.48;100.00;99447.50;5031249;28;20046;-78
2022/05/01 03:03:23;;;;;;;39.53;22.65;;;;;;;8.24;100.00;99410.31;5027873;28;20413;-78
2022/05/01 03:05:51;;;;;;;45.80;22.33;;;;;;;8.51;100.00;99443.63;5029231;28;20051;-78
2022/05/01 03:08:17;;;;;;;39.78;22.98;;;;;;;8.33;100.00;99444.53;5029438;28;20116;-78
2022/05/01 03:10:44;;;;;;;42.30;23.95;;;;;;;8.49;100.00;99445.63;5031946;28;20604;-78
2022/05/01 03:13:10;;;;;;;35.65;21.40;;;;;;;8.36;100.00;99429.00;5025678;28;20057;-78
2022/05/01 03:15:37;;;;;;;39.10;23.05;;;;;;;8.54;100.00;99437.03;5024173;28;20092;-77
2022/05/01 03:23:48;;;;;;;43.33;23.17;;;;;;;8.33;100.00;99424.75;4986002;28;20521;-77
2022/05/01 03:26:16;;;;;;;46.58;23.35;;;;;;;8.50;100.00;99433.78;4982377;28;20351;-77
2022/05/01 03:28:43;;;;;;;40.83;23.75;;;;;;;8.37;100.00;99418.00;5002187;28;20050;-78
2022/05/01 03:31:10;;;;;;;45.38;24.35;;;;;;;8.48;100.00;99438.53;5024739;28;20042;-78
2022/05/01 03:33:37;;;;;;;38.92;23.23;;;;;;;8.21;100.00;99416.06;5031728;28;20057;-77
2022/05/01 03:36:06;;;;;;;48.28;23.52;;;;;;;8.24;100.00;99429.28;5031440;28;20056;-78
2022/05/01 03:38:34;;;;;;;39.80;23.50;;;;;;;8.29;100.00;99426.06;5027261;28;20493;-78
2022/05/01 03:41:01;;;;;;;46.63;23.27;;;;;;;8.30;100.00;99430.50;5030439;28;20456;-78
2022/05/01 03:43:27;;;;;;;43.63;23.40;;;;;;;8.17;100.00;99398.44;5022861;28;20512;-78
2022/05/01 03:45:54;;;;;;;40.22;24.48;;;;;;;8.30;100.00;99433.19;5030755;28;20108;-78
2022/05/01 03:48:20;;;;;;;42.60;24.08;;;;;;;8.24;100.00;99413.03;5028550;28;20053;-78
2022/05/01 03:50:47;;;;;;;39.38;22.42;;;;;;;8.31;100.00;99413.25;5029989;28;20144;-78
2022/05/01 03:53:15;;;;;;;43.00;23.83;;;;;;;8.27;100.00;99406.44;5030958;28;20045;-78
2022/05/01 03:55:41;;;;;;;43.28;24.33;;;;;;;8.30;100.00;99406.94;5027725;28;20050;-78
2022/05/01 03:58:08;;;;;;;46.55;24.45;;;;;;;8.43;100.00;99435.44;5028209;28;20414;-78
2022/05/01 04:00:35;;;;;;;41.65;23.70;;;;;;;8.35;100.00;99432.72;5027937;28;20053;-78
2022/05/01 04:03:01;;;;;;;41.75;24.02;;;;;;;8.38;100.00;99435.09;5026376;28;20136;-78
2022/05/01 04:05:28;;;;;;;43.60;23.35;;;;;;;8.28;100.00;99438.78;5028807;28;20045;-78
2022/05/01 04:07:55;;;;;;;41.10;22.30;;;;;;;8.38;100.00;99445.91;5029724;28;20052;-78
2022/05/01 04:10:22;;;;;;;36.00;23.08;;;;;;;8.25;100.00;99424.69;5029037;28;20422;-78
2022/05/01 04:12:49;;;;;;;40.45;23.60;;;;;;;8.34;100.00;99440.00;5029003;28;20049;-78
2022/05/01 04:15:15;;;;;;;40.38;23.77;;;;;;;8.43;100.00;99448.97;5027709;28;20406;-78
2022/05/01 04:17:43;;;;;;;43.38;23.83;;;;;;;8.47;100.00;99443.09;5023532;28;20469;-78
2022/05/01 04:20:12;;;;;;;41.67;25.75;;;;;;;8.39;100.00;99437.63;5019359;28;20127;-77
2022/05/01 04:22:40;;;;;;;42.13;23.42;;;;;;;8.41;100.00;99437.47;5025328;28;20491;-78
2022/05/01 04:25:14;;;;;;;42.35;23.70;;;;;;;8.46;100.00;99441.41;5024414;28;20060;-78
2022/05/01 04:27:42;;;;;;;43.25;22.60;;;;;;;8.33;100.00;99413.91;5026528;28;20100;-78
2022/05/01 04:30:11;;;;;;;47.08;25.17;;;;;;;8.56;100.00;99435.00;5025245;28;20107;-78
2022/05/01 04:32:47;;;;;;;45.70;25.02;;;;;;;8.45;100.00;99430.75;5029347;28;20061;-78
2022/05/01 04:35:13;;;;;;;43.20;25.23;;;;;;;8.29;100.00;99431.50;5024680;28;20100;-77
2022/05/01 04:37:40;;;;;;;49.92;27.00;;;;;;;8.30;100.00;99430.50;5026136;28;20085;-77
2022/05/01 04:40:07;;;;;;;46.05;25.90;;;;;;;8.52;100.00;99439.03;5029729;28;20057;-78
2022/05/01 04:42:34;;;;;;;44.95;25.05;;;;;;;8.38;100.00;99424.25;5029606;28;20060;-78
2022/05/01 04:45:02;;;;;;;43.80;24.20;;;;;;;8.33;100.00;99416.63;5037205;28;20059;-77
2022/05/01 04:47:28;;;;;;;49.80;25.83;;;;;;;8.26;100.00;99408.28;5028825;28;20052;-78
2022/05/01 04:49:55;;;;;;;44.13;24.90;;;;;;;8.48;100.00;99446.66;5027766;28;20054;-78
2022/05/01 04:52:21;;;;;;;45.67;24.80;;;;;;;8.37;100.00;99419.84;5031427;28;20068;-78
2022/05/01 04:54:48;;;;;;;47.88;25.13;;;;;;;8.57;100.00;99448.38;5029927;28;20052;-78
2022/05/01 04:57:15;;;;;;;47.38;24.88;;;;;;;8.42;100.00;99437.31;5028471;28;20057;-78
2022/05/01 04:59:41;;;;;;;40.70;25.73;;;;;;;8.67;100.00;99456.34;5025966;28;20057;-78
2022/05/01 05:02:09;;;;;;;48.20;24.42;;;;;;;8.59;100.00;99448.22;5029448;28;20127;-78
2022/05/01 05:04:37;;;;;;;41.90;24.27;;;;;;;8.68;100.00;99455.34;5029443;28;20092;-78
2022/05/01 05:07:04;;;;;;;45.90;26.38;;;;;;;8.50;100.00;99434.63;5028962;28;20061;-78
2022/05/01 05:12:14;;;;;;;51.80;25.98;;;;;;;8.73;100.00;99457.56;5020952;28;20076;-78
2022/05/01 05:14:41;;;;;;;44.08;24.30;;;;;;;8.83;100.00;99463.69;5027151;28;20055;-78
2022/05/01 05:17:09;;;;;;;48.60;26.63;;;;;;;8.89;100.00;99473.88;5027487;28;20041;-78
2022/05/01 05:19:39;;;;;;;40.15;24.33;;;;;;;8.67;100.00;99453.66;5020509;28;20058;-78
2022/05/01 05:22:05;;;;;;;41.05;23.35;;;;;;;8.51;100.00;99438.22;5020854;28;20054;-78
2022/05/01 05:24:32;;;;;;;43.97;23.67;;;;;;;8.81;100.00;99471.16;5029145;28;20037;-78
2022/05/01 05:26:58;;;;;;;49.30;25.52;;;;;;;8.85;100.00;99464.38;5023633;28;20053;-78
2022/05/01 05:29:25;;;;;;;46.58;25.85;;;;;;;8.79;100.00;99457.78;5029121;28;20041;-78
2022/05/01 05:31:51;;;;;;;48.67;24.05;;;;;;;8.85;100.00;99480.63;5029997;28;20481;-76
2022/05/01 05:34:18;;;;;;;42.85;24.45;;;;;;;8.66;100.00;99454.69;5022692;28;20042;-76
2022/05/01 05:36:46;;;;;;;43.78;23.45;;;;;;;8.76;100.00;99468.06;5026986;28;20049;-75
2022/05/01 05:39:12;;;;;;;44.35;23.77;;;;;;;8.67;100.00;99459.06;5024060;28;20512;-76
2022/05/01 05:41:39;;;;;;;43.22;25.52;;;;;;;8.71;100.00;99465.03;5028865;28;20042;-75
2022/05/01 05:44:05;;;;;;;43.08;24.55;;;;;;;8.86;100.00;99493.19;5026303;28;20049;-75
2022/05/01 05:46:32;;;;;;;42.53;24.42;;;;;;;8.99;100.00;99488.13;5026358;28;20046;-75
2022/05/01 05:48:58;;;;;;;50.75;26.10;;;;;;;8.95;100.00;99453.38;5025095;28;20409;-75
2022/05/01 05:51:25;;;;;;;46.85;25.23;;;;;;;9.10;100.00;99478.81;5023798;28;20051;-75
2022/05/01 05:53:54;;;;;;;43.08;25.27;;;;;;;9.20;100.00;99484.09;5025700;28;20052;-75
2022/05/01 05:56:21;;;;;;;48.42;26.15;;;;;;;9.24;100.00;99473.75;5030338;28;20532;-76
2022/05/01 05:58:48;;;;;;;39.67;25.35;;;;;;;9.33;100.00;99480.88;5027439;28;20071;-78
2022/05/01 06:01:14;;;;;;;51.50;25.10;;;;;;;9.48;100.00;99487.31;5028688;28;20053;-78
2022/05/01 06:03:41;;;;;;;42.83;23.95;;;;;;;9.34;100.00;99469.84;5027491;28;20052;-78
2022/05/01 06:06:08;;;;;;;39.97;24.02;;;;;;;9.41;100.00;99485.44;5026825;28;20417;-78
2022/05/01 06:08:35;;;;;;;42.75;23.92;;;;;;;9.47;100.00;99479.34;5019862;28;20041;-78
2022/05/01 06:11:03;;;;;;;41.90;24.15;;;;;;;9.39;100.00;99466.63;5028221;28;20061;-78
2022/05/01 06:13:29;;;;;;;41.85;24.27;;;;;;;9.65;100.00;99479.16;5022865;28;20072;-77
2022/05/01 06:15:56;;;;;;;41.25;22.83;;;;;;;9.72;100.00;99483.72;5027866;28;20428;-78
2022/05/01 06:18:22;;;;;;;41.22;23.48;;;;;;;9.62;100.00;99464.06;5029791;28;20064;-78
2022/05/01 06:20:50;;;;;;;40.80;25.40;;;;;;;9.83;100.00;99487.97;5023180;28;20050;-78
2022/05/01 06:23:17;;;;;;;44.30;25.75;;;;;;;9.64;100.00;99469.34;5029230;28;20050;-78
2022/05/01 06:25:44;;;;;;;37.05;22.38;;;;;;;9.81;100.00;99481.00;5026247;28;20046;-77
2022/05/01 06:28:12;;;;;;;35.35;21.02;;;;;;;9.94;100.00;99484.03;5028262;28;20053;-77
2022/05/01 06:30:40;;;;;;;39.00;22.63;;;;;;;9.90;100.00;99467.22;5029634;28;20045;-78
2022/05/01 06:33:09;;;;;;;40.60;23.15;;;;;;;9.81;100.00;99451.16;5023198;28;20050;-78
2022/05/01 06:35:36;;;;;;;39.60;21.40;;;;;;;10.00;100.00;99477.09;5024015;28;20040;-77
2022/05/01 06:38:03;;;;;;;39.72;22.25;;;;;;;10.21;100.00;99480.06;5025577;28;20061;-78
2022/05/01 06:40:29;;;;;;;37.75;22.10;;;;;;;10.29;100.00;99473.75;5028774;28;20060;-78
2022/05/01 06:42:56;;;;;;;38.42;21.55;;;;;;;10.26;100.00;99468.66;5026056;28;20041;-78
2022/05/01 06:45:24;;;;;;;34.38;21.38;;;;;;;10.47;100.00;99478.97;5028454;28;20053;-77
2022/05/01 06:47:51;;;;;;;36.63;20.27;;;;;;;10.46;100.00;99485.44;5022272;28;20053;-78
2022/05/01 06:50:17;;;;;;;32.88;19.50;;;;;;;10.51;100.00;99466.75;5024905;28;20056;-78
2022/05/01 06:52:44;;;;;;;30.33;18.88;;;;;;;10.40;100.00;99448.94;5026637;28;20049;-77
2022/05/01 06:55:10;;;;;;;36.78;21.83;;;;;;;10.44;100.00;99487.50;5022695;28;20433;-78
2022/05/01 06:57:37;;;;;;;35.92;20.02;;;;;;;10.41;100.00;99457.94;5027056;28;20565;-78
2022/05/01 07:00:04;;;;;;;28.23;18.95;;;;;;;10.63;100.00;99470.75;5026924;28;20104;-78
2022/05/01 07:02:32;;;;;;;33.30;20.13;;;;;;;10.68;100.00;99493.84;5021141;28;20077;-78
2022/05/01 07:04:58;;;;;;;39.80;20.73;;;;;;;10.87;100.00;99495.25;5029353;28;20046;-78
2022/05/01 07:07:25;;;;;;;36.42;19.88;;;;;;;10.98;100.00;99492.16;5030770;28;20045;-78
2022/05/01 07:09:51;;;;;;;34.10;19.30;;;;;;;10.88;100.00;99486.91;5033238;28;20049;-78
2022/05/01 07:12:18;;;;;;;29.58;18.23;;;;;;;10.94;100.00;99497.09;5030546;28;20053;-78
2022/05/01 07:14:45;;;;;;;32.92;19.08;;;;;;;10.98;100.00;99501.13;5031324;28;20041;-78
2022/05/01 07:17:12;;;;;;;32.58;17.95;;;;;;;10.60;100.00;99489.28;5030528;28;20057;-78
2022/05/01 07:19:40;;;;;;;33.78;19.23;;;;;;;10.62;100.00;99482.63;5028903;28;20428;-78
2022/05/01 07:22:06;;;;;;;36.67;18.20;;;;;;;10.59;100.00;99490.31;5026054;28;20050;-78
2022/05/01 07:24:33;;;;;;;34.78;18.20;;;;;;;10.73;100.00;99502.31;5027046;28;20086;-78
2022/05/01 07:26:59;;;;;;;27.40;18.38;;;;;;;10.84;100.00;99501.06;5021933;28;20042;-78
2022/05/01 07:29:26;;;;;;;31.60;17.98;;;;;;;10.94;100.00;99502.56;5032283;28;20053;-78
2022/05/01 07:31:53;;;;;;;27.90;18.52;;;;;;;10.99;100.00;99485.69;5028797;28;20103;-78
2022/05/01 07:34:19;;;;;;;34.97;18.52;;;;;;;10.98;100.00;99479.38;5023300;28;20045;-78
2022/05/01 07:36:47;;;;;;;31.45;18.80;;;;;;;11.02;100.00;99482.59;5027076;28;20053;-78
2022/05/01 07:39:14;;;;;;;30.48;18.27;;;;;;;11.03;100.00;99469.84;5020763;28;20068;-78
2022/05/01 07:41:41;;;;;;;26.73;17.77;;;;;;;11.04;100.00;99463.38;5022007;28;20048;-78
2022/05/01 07:44:08;;;;;;;24.67;16.35;;;;;;;11.03;100.00;99483.44;5028522;28;20048;-78
2022/05/01 07:46:35;;;;;;;27.58;17.98;;;;;;;11.03;100.00;99497.88;5022944;28;20490;-78
2022/05/01 07:49:02;;;;;;;31.10;18.75;;;;;;;10.88;100.00;99494.25;5028596;28;20049;-77
2022/05/01 07:51:28;;;;;;;27.95;17.35;;;;;;;10.87;100.00;99479.81;5020981;28;20137;-78
2022/05/01 07:53:58;;;;;;;37.50;18.20;;;;;;;11.02;100.00;99473.56;5023072;28;20120;-78
2022/05/01 07:56:25;;;;;;;26.10;17.55;;;;;;;11.19;100.00;99485.22;5024285;28;20064;-78
2022/05/01 07:58:51;;;;;;;25.77;17.33;;;;;;;11.24;100.00;99491.78;5024733;28;20041;-78
2022/05/01 08:01:18;;;;;;;31.48;17.83;;;;;;;11.15;100.00;99490.16;5029576;28;20045;-78
2022/05/01 08:06:28;;;;;;;25.65;16.85;;;;;;;11.12;100.00;99490.50;5025363;28;20052;-78
2022/05/01 08:08:56;;;;;;;27.48;16.45;;;;;;;11.38;100.00;99494.75;5024493;28;20053;-78
2022/05/01 08:11:23;;;;;;;32.95;15.93;;;;;;;11.48;100.00;99489.91;5032047;28;20053;-78
2022/05/01 08:13:49;;;;;;;25.88;14.75;;;;;;;11.52;99.94;99480.34;5028780;28;20053;-78
2022/05/01 08:16:17;;;;;;;22.95;14.85;;;;;;;11.80;99.49;99479.75;5023467;28;20115;-78
2022/05/01 08:21:31;;;;;;;25.73;16.25;;;;;;;12.30;95.33;99502.78;5023839;28;20056;-78
2022/05/01 08:23:59;;;;;;;29.33;15.60;;;;;;;12.35;95.24;99494.03;5022977;28;20046;-78
2022/05/01 08:26:26;;;;;;;28.02;17.00;;;;;;;12.37;95.11;99475.59;5025785;28;20521;-78
2022/05/01 08:28:54;;;;;;;26.20;16.42;;;;;;;12.26;93.14;99467.91;5030595;28;20057;-78
2022/05/01 08:31:21;;;;;;;23.80;15.27;;;;;;;12.68;90.39;99486.28;5029317;28;20622;-78
2022/05/01 08:33:48;;;;;;;22.30;14.93;;;;;;;12.79;90.45;99498.56;5027980;28;20045;-78
2022/05/01 08:36:15;;;;;;;21.83;14.23;;;;;;;12.90;91.17;99484.44;5030947;28;20545;-78
2022/05/01 08:38:42;;;;;;;25.23;14.75;;;;;;;12.33;91.48;99461.50;5020410;28;20111;-79
2022/05/01 08:41:10;;;;;;;21.20;14.13;;;;;;;12.85;90.72;99475.13;5021488;28;20157;-79
2022/05/01 08:43:37;;;;;;;23.20;14.43;;;;;;;13.06;92.12;99487.97;5026599;28;20080;-79
2022/05/01 08:46:41;;;;;;;25.45;14.40;;;;;;;13.17;91.47;99483.88;5029575;28;20481;-79
2022/05/01 08:49:10;;;;;;;22.50;13.73;;;;;;;13.08;87.00;99486.75;4970712;28;20053;-77
2022/05/01 08:51:39;;;;;;;21.45;13.23;;;;;;;13.06;87.04;99450.59;5030902;28;20050;-78
2022/05/01 08:54:09;;;;;;;21.42;14.48;;;;;;;13.17;86.55;99467.50;5024615;28;20053;-78
2022/05/01 08:56:41;;;;;;;22.05;14.30;;;;;;;12.72;88.13;99457.59;5023266;28;20041;-78
2022/05/01 08:59:09;;;;;;;19.75;13.85;;;;;;;13.17;87.36;99481.16;5027540;28;20132;-78
2022/05/01 09:01:37;;;;;;;25.08;13.85;;;;;;;13.03;87.53;99485.63;5032128;28;20049;-78
2022/05/01 09:04:06;;;;;;;25.00;13.35;;;;;;;13.10;87.71;99462.81;5030753;28;20380;-78
2022/05/01 09:06:34;;;;;;;23.27;13.65;;;;;;;13.03;84.82;99469.25;5032799;28;20135;-78
2022/05/01 09:09:05;;;;;;;20.73;14.15;;;;;;;13.12;85.52;99459.91;5030953;28;20088;-78
2022/05/01 09:14:25;;;;;;;24.52;13.95;;;;;;;13.45;84.68;99464.88;4990329;28;20210;-79
2022/05/01 09:17:10;;;;;;;;;;;;;;;13.47;84.97;99479.16;5028102;28;20060;-78
2022/05/01 09:19:38;;;;;;;23.17;13.98;;;;;;;13.66;82.53;99457.69;5030487;28;19927;-78
2022/05/01 09:22:04;;;;;;;20.17;14.13;;;;;;;13.66;85.40;99449.50;5011283;28;20056;-78
2022/05/01 09:24:32;;;;;;;26.67;14.27;;;;;;;13.76;82.16;99471.84;5011838;28;20550;-78
2022/05/01 09:27:00;;;;;;;21.33;12.45;;;;;;;13.48;81.49;99453.56;5016668;28;20054;-78
2022/05/01 09:29:34;;;;;;;17.55;11.63;;;;;;;13.58;82.84;99466.88;5024519;28;20119;-77
2022/05/01 09:32:03;;;;;;;17.20;11.73;;;;;;;13.57;79.38;99471.47;5027205;28;20497;-77
2022/05/01 09:34:32;;;;;;;21.00;12.70;;;;;;;13.67;81.10;99475.75;5024112;28;20088;-77
2022/05/01 09:37:00;;;;;;;20.17;13.05;;;;;;;13.74;79.19;99468.47;5030856;28;20060;-77
2022/05/01 09:39:29;;;;;;;19.40;12.60;;;;;;;13.86;80.35;99466.03;5021643;28;20497;-77
2022/05/01 09:42:14;;;;;;;18.67;12.05;;;;;;;14.10;80.07;99478.41;5022791;28;20065;-79
2022/05/01 09:44:43;;;;;;;18.05;12.18;;;;;;;13.58;78.95;99473.19;5027448;28;20045;-79
2022/05/01 09:47:11;;;;;;;18.35;11.88;;;;;;;13.48;81.58;99458.19;5031709;28;20061;-78
2022/05/01 09:49:49;;;;;;;16.67;11.35;;;;;;;13.79;79.52;99466.84;5028395;28;20054;-79
2022/05/01 09:52:19;;;;;;;21.30;12.30;;;;;;;14.05;78.28;99470.81;5021838;28;20089;-78
2022/05/01 09:55:04;;;;;;;21.92;12.48;;;;;;;13.89;76.73;99482.03;5031775;28;20133;-79
2022/05/01 09:57:31;;;;;;;20.00;11.75;;;;;;;13.59;77.25;99466.69;5025573;28;20386;-79
2022/05/01 10:00:01;;;;;;;19.50;11.15;;;;;;;13.36;79.51;99455.13;5026817;28;20140;-79
2022/05/01 10:02:30;;;;;;;17.88;11.38;;;;;;;13.15;83.82;99466.88;5029412;28;20533;-79
2022/05/01 10:05:02;;;;;;;25.87;12.83;;;;;;;13.20;84.18;99469.84;5012099;28;20050;-79
2022/05/01 10:07:32;;;;;;;19.90;12.13;;;;;;;13.13;83.52;99477.09;5017561;28;20045;-79
2022/05/01 10:09:59;;;;;;;;;;;;;;;13.31;83.50;99468.47;5012928;28;20064;-79
2022/05/01 10:12:30;;;;;;;21.00;12.10;;;;;;;13.12;84.09;99434.50;5013140;28;19974;-79
2022/05/01 10:14:58;;;;;;;20.05;12.15;;;;;;;13.39;80.39;99441.91;5019085;28;20482;-79
2022/05/01 10:17:25;;;;;;;22.40;12.68;;;;;;;13.90;75.57;99457.25;5032189;28;20061;-79
2022/05/01 10:19:52;;;;;;;18.40;11.85;;;;;;;13.88;77.25;99450.28;5027631;28;20042;-78
2022/05/01 10:22:19;;;;;;;18.05;11.90;;;;;;;14.05;76.32;99462.59;5025378;28;20060;-79
2022/05/01 10:24:45;;;;;;;25.10;12.85;;;;;;;14.14;74.56;99446.88;5022007;28;20056;-79
2022/05/01 10:27:25;;;;;;;18.92;11.63;;;;;;;13.98;75.46;99458.97;5032000;28;20056;-79
2022/05/01 10:33:04;;;;;;;17.38;11.45;;;;;;;14.19;72.91;99446.28;5021470;28;20052;-79
2022/05/01 10:36:15;;;;;;;18.48;10.93;;;;;;;14.38;71.92;99442.81;5030084;28;20417;-79
2022/05/01 10:38:54;;;;;;;18.38;11.45;;;;;;;14.54;70.76;99429.81;4967466;28;20051;-79
2022/05/01 10:41:20;;;;;;;19.55;11.38;;;;;;;14.48;73.37;99440.56;5012745;28;20053;-79
2022/05/01 10:43:55;;;;;;;21.63;12.07;;;;;;;14.01;72.93;99420.31;5023257;28;20413;-79
2022/05/01 10:46:29;;;;;;;22.13;11.55;;;;;;;14.40;72.25;99442.59;5027898;28;20517;-79
2022/05/01 10:49:00;;;;;;;17.48;10.63;;;;;;;14.62;70.56;99408.63;5023315;28;20053;-79
2022/05/01 10:51:49;;;;;;;14.57;10.27;;;;;;;14.57;72.56;99432.97;5024321;28;20413;-79
2022/05/01 10:54:39;;;;;;;13.98;9.90;;;;;;;14.82;71.09;99440.69;5023541;28;20059;-79
2022/05/01 10:57:10;;;;;;;16.65;10.20;;;;;;;15.13;70.29;99412.75;5008538;28;20054;-79
2022/05/01 10:59:38;;;;;;;16.42;10.10;;;;;;;15.36;68.78;99427.97;5018748;28;20618;-79
2022/05/01 11:02:06;;;;;;;15.98;10.52;;;;;;;15.22;70.11;99416.16;5012898;28;20054;-79
2022/05/01 11:04:41;;;;;;;13.90;10.10;;;;;;;15.45;65.63;99412.16;5013375;28;20045;-79
2022/05/01 11:07:10;;;;;;;13.18;9.48;;;;;;;15.77;66.40;99424.16;5030205;28;20057;-79
2022/05/01 11:09:38;;;;;;;23.17;11.55;;;;;;;15.63;66.87;99425.22;5023005;28;20053;-79
2022/05/01 11:12:07;;;;;;;20.77;10.25;;;;;;;15.49;67.03;99427.09;5027127;28;20163;-79
2022/05/01 11:14:35;;;;;;;15.40;10.27;;;;;;;15.24;65.79;99400.34;5026530;28;20111;-79
2022/05/01 11:17:02;;;;;;;15.93;9.98;;;;;;;15.44;69.95;99405.81;5022452;28;20053;-79
2022/05/01 11:19:31;;;;;;;12.57;8.68;;;;;;;14.78;67.48;99414.78;5014460;28;20128;-79
2022/05/01 11:21:59;;;;;;;19.05;10.60;;;;;;;15.28;66.46;99403.50;5021057;28;20046;-79
2022/05/01 11:24:43;;;;;;;19.40;9.68;;;;;;;15.50;67.17;99424.16;5018079;28;20136;-79
2022/05/01 11:27:15;;;;;;;14.60;9.93;;;;;;;15.24;69.36;99424.16;5032365;28;20045;-78
2022/05/01 11:30:22;;;;;;;18.80;11.23;;;;;;;15.14;71.35;99422.66;5032276;28;20049;-79
2022/05/01 11:32:50;;;;;;;18.48;12.38;;;;;;;15.31;70.00;99419.50;5030766;28;20516;-79
2022/05/01 11:35:17;;;;;;;17.42;11.38;;;;;;;15.50;68.31;99417.84;5026307;28;20136;-78
2022/05/01 11:37:49;;;;;;;19.95;12.27;;;;;;;15.78;66.42;99387.50;5010994;28;20049;-78
2022/05/01 11:40:30;;;;;;;13.32;8.82;;;;;;;15.54;67.12;99397.19;5030783;28;20049;-79
2022/05/01 11:43:17;;;;;;;20.35;11.55;;;;;;;15.09;69.40;99422.44;5029947;28;20053;-78
2022/05/01 11:45:45;;;;;;;16.92;10.40;;;;;;;14.69;71.39;99405.91;5030829;28;20041;-79
2022/05/01 11:48:12;;;;;;;16.02;11.93;;;;;;;15.15;70.56;99407.91;5030500;28;20049;-79
2022/05/01 11:50:40;;;;;;;20.20;11.35;;;;;;;15.32;66.84;99382.84;5027600;28;20057;-79